Time;durP1;ratioP1;P1;durP2;ratioP2;P2;SDS_P1;SDS_P2;PMS_P1;PMS_P2;Temp;Humidity;BMP_temperature;BMP_pressure;BME280_temperature;BME280_humidity;BME280_pressure;Samples;Min_cycle;Max_cycle;Signal;HPM_P1;HPM_P2
2023/12/20 00:00:08;;;;;;;43.63;38.13;;;;;;;;;;4946247;28;20231;-44
2023/12/20 00:02:35;;;;;;;41.67;35.15;;;;;;;;;;4940176;29;20265;-45
2023/12/20 00:05:00;;;;;;;40.35;35.47;;;;;;;;;;4953890;28;20191;-45
2023/12/20 00:07:26;;;;;;;37.07;33.33;;;;;;;;;;4936286;29;20197;-45
2023/12/20 00:09:52;;;;;;;43.07;38.17;;;;;;;;;;4952674;29;20440;-45
2023/12/20 00:12:18;;;;;;;40.00;35.83;;;;;;;;;;4942032;28;20477;-45
2023/12/20 00:14:44;;;;;;;23.90;21.73;;;;;;;;;;4944770;29;20419;-45
2023/12/20 00:17:10;;;;;;;12.73;11.53;;;;;;;;;;4950464;28;20416;-45
2023/12/20 00:19:36;;;;;;;20.70;18.90;;;;;;;;;;4936649;29;20414;-45
2023/12/20 00:22:02;;;;;;;13.00;11.83;;;;;;;;;;4955260;28;20932;-45
2023/12/20 00:24:28;;;;;;;15.93;14.52;;;;;;;;;;4938804;28;20459;-45
2023/12/20 00:26:54;;;;;;;29.20;27.10;;;;;;;;;;4947819;29;20243;-45
2023/12/20 00:29:20;;;;;;;38.88;34.78;;;;;;;;;;4946753;28;20405;-45
2023/12/20 00:31:46;;;;;;;37.83;34.03;;;;;;;;;;4938370;29;20585;-45
2023/12/20 00:34:12;;;;;;;35.90;32.30;;;;;;;;;;4954622;28;20827;-45
2023/12/20 00:36:38;;;;;;;31.47;28.77;;;;;;;;;;4935701;29;20448;-45
2023/12/20 00:39:04;;;;;;;78.97;36.50;;;;;;;;;;4950935;28;20421;-45
2023/12/20 00:41:30;;;;;;;45.53;40.70;;;;;;;;;;4942088;28;20528;-44
2023/12/20 00:43:56;;;;;;;19.00;17.47;;;;;;;;;;4943204;29;20681;-44
2023/12/20 00:46:22;;;;;;;13.70;12.43;;;;;;;;;;4950871;28;20818;-45
2023/12/20 00:48:48;;;;;;;26.00;23.57;;;;;;;;;;4935676;29;20748;-45
2023/12/20 00:51:14;;;;;;;36.33;33.33;;;;;;;;;;4954327;28;20436;-45
2023/12/20 00:53:40;;;;;;;31.92;29.65;;;;;;;;;;4939383;28;20411;-45
2023/12/20 00:56:06;;;;;;;14.27;13.07;;;;;;;;;;4946267;29;20176;-45
2023/12/20 00:58:32;;;;;;;29.45;26.85;;;;;;;;;;4947372;28;20184;-44
2023/12/20 01:00:58;;;;;;;14.87;13.47;;;;;;;;;;4937878;29;20267;-45
2023/12/20 01:03:24;;;;;;;18.13;16.52;;;;;;;;;;4954229;28;20459;-45
2023/12/20 01:05:50;;;;;;;19.52;18.13;;;;;;;;;;4935828;28;20599;-45
2023/12/20 01:08:16;;;;;;;31.45;28.95;;;;;;;;;;4949454;29;20680;-45
2023/12/20 01:10:42;;;;;;;16.00;14.57;;;;;;;;;;4943244;28;20205;-45
2023/12/20 01:13:08;;;;;;;12.93;11.73;;;;;;;;;;4941753;29;20436;-45
2023/12/20 01:15:34;;;;;;;37.45;33.80;;;;;;;;;;4950100;28;20522;-45
2023/12/20 01:18:01;;;;;;;31.93;28.67;;;;;;;;;;4935400;29;20273;-45
2023/12/20 01:20:27;;;;;;;25.98;23.38;;;;;;;;;;4952397;28;20439;-44
2023/12/20 01:22:53;;;;;;;35.73;29.73;;;;;;;;;;4939690;28;20573;-45
2023/12/20 01:25:19;;;;;;;32.83;29.35;;;;;;;;;;4945088;29;20609;-45
2023/12/20 01:27:44;;;;;;;37.33;30.27;;;;;;;;;;4948021;28;20660;-45
2023/12/20 01:30:11;;;;;;;47.33;33.27;;;;;;;;;;4936836;29;20397;-44
2023/12/20 01:32:37;;;;;;;47.30;32.35;;;;;;;;;;4953881;28;20428;-45
2023/12/20 01:35:03;;;;;;;51.43;38.10;;;;;;;;;;4936420;28;20531;-45
2023/12/20 01:37:29;;;;;;;41.67;30.98;;;;;;;;;;4947981;29;20406;-45
2023/12/20 01:39:55;;;;;;;22.77;20.98;;;;;;;;;;4944109;28;20603;-44
2023/12/20 01:42:22;;;;;;;13.00;11.85;;;;;;;;;;4939771;29;20196;-45
2023/12/20 01:44:48;;;;;;;19.77;18.00;;;;;;;;;;4951971;28;20172;-44
2023/12/20 01:47:14;;;;;;;30.87;27.83;;;;;;;;;;4934653;29;20173;-45
2023/12/20 01:49:40;;;;;;;18.50;16.97;;;;;;;;;;4951685;29;20416;-45
2023/12/20 01:52:06;;;;;;;17.35;15.70;;;;;;;;;;4939951;28;20437;-45
2023/12/20 01:54:32;;;;;;;33.55;30.23;;;;;;;;;;4943683;29;20264;-45
2023/12/20 01:56:58;;;;;;;20.93;17.30;;;;;;;;;;4952967;28;20266;-45
2023/12/20 01:59:24;;;;;;;27.90;25.83;;;;;;;;;;4952418;28;20804;-45
2023/12/20 02:01:50;;;;;;;11.37;10.30;;;;;;;;;;4933749;29;20437;-45
2023/12/20 02:04:16;;;;;;;32.10;29.60;;;;;;;;;;4950303;29;20492;-45
2023/12/20 02:06:43;;;;;;;37.70;34.17;;;;;;;;;;4940129;28;20181;-45
2023/12/20 02:09:09;;;;;;;29.95;27.67;;;;;;;;;;4943082;29;20181;-45
2023/12/20 02:11:35;;;;;;;20.77;19.08;;;;;;;;;;4948528;28;20204;-45
2023/12/20 02:14:01;;;;;;;21.85;19.90;;;;;;;;;;4933891;29;20174;-45
2023/12/20 02:16:27;;;;;;;13.80;12.63;;;;;;;;;;4953358;28;20176;-45
2023/12/20 02:18:53;;;;;;;36.87;33.47;;;;;;;;;;4937123;28;20186;-45
2023/12/20 02:21:20;;;;;;;34.90;31.40;;;;;;;;;;4946252;28;20511;-44
2023/12/20 02:23:46;;;;;;;45.80;37.53;;;;;;;;;;4944969;28;20653;-45
2023/12/20 02:26:13;;;;;;;44.15;31.30;;;;;;;;;;4938654;29;20700;-45
2023/12/20 02:28:39;;;;;;;49.65;33.83;;;;;;;;;;4952687;28;20168;-45
2023/12/20 02:31:05;;;;;;;42.17;32.67;;;;;;;;;;4934136;29;20186;-45
2023/12/20 02:33:31;;;;;;;35.67;31.77;;;;;;;;;;4949931;29;20191;-45
2023/12/20 02:35:57;;;;;;;25.25;22.60;;;;;;;;;;4941677;28;20425;-45
2023/12/20 02:38:23;;;;;;;33.67;31.07;;;;;;;;;;4942539;29;20552;-45
2023/12/20 02:40:49;;;;;;;17.03;15.63;;;;;;;;;;4948913;28;20528;-45
2023/12/20 02:43:15;;;;;;;29.57;27.47;;;;;;;;;;4934144;29;20518;-45
2023/12/20 02:45:41;;;;;;;31.83;29.23;;;;;;;;;;4953962;28;20459;-45
2023/12/20 02:48:07;;;;;;;19.50;17.85;;;;;;;;;;4952744;28;20412;-45
2023/12/20 02:50:33;;;;;;;24.33;22.10;;;;;;;;;;4941487;28;20664;-45
2023/12/20 02:52:59;;;;;;;40.47;34.73;;;;;;;;;;4941350;29;20180;-45
2023/12/20 02:55:25;;;;;;;25.97;23.87;;;;;;;;;;4949760;28;20442;-45
2023/12/20 02:57:51;;;;;;;39.90;36.70;;;;;;;;;;4945676;29;20416;-46
2023/12/20 03:00:17;;;;;;;18.40;16.90;;;;;;;;;;4933079;28;20465;-45
2023/12/20 03:02:43;;;;;;;24.42;22.23;;;;;;;;;;4947331;28;20468;-45
2023/12/20 03:05:09;;;;;;;45.40;40.50;;;;;;;;;;4945616;28;20200;-45
2023/12/20 03:07:37;;;;;;;45.47;41.23;;;;;;;;;;4944051;29;20447;-45
2023/12/20 03:10:03;;;;;;;36.50;34.05;;;;;;;;;;4953220;28;20421;-45
2023/12/20 03:12:29;;;;;;;45.25;40.53;;;;;;;;;;4937070;29;20279;-45
2023/12/20 03:14:54;;;;;;;59.50;52.47;;;;;;;;;;4955296;29;20223;-45
2023/12/20 03:17:20;;;;;;;19.57;17.87;;;;;;;;;;4941753;28;20420;-45
2023/12/20 03:19:46;;;;;;;32.15;29.58;;;;;;;;;;4947604;29;20417;-46
2023/12/20 03:22:12;;;;;;;28.70;26.70;;;;;;;;;;4949231;28;20295;-45
2023/12/20 03:24:38;;;;;;;31.37;29.13;;;;;;;;;;4939606;29;20473;-45
2023/12/20 03:27:04;;;;;;;22.67;20.77;;;;;;;;;;4954929;28;20412;-45
2023/12/20 03:29:30;;;;;;;31.80;29.40;;;;;;;;;;4938091;28;20841;-44
2023/12/20 03:31:56;;;;;;;20.87;19.23;;;;;;;;;;4950485;28;20196;-45
2023/12/20 03:34:22;;;;;;;14.13;12.80;;;;;;;;;;4946108;28;20922;-45
2023/12/20 03:36:48;;;;;;;33.60;31.20;;;;;;;;;;4942814;29;21006;-45
2023/12/20 03:39:14;;;;;;;16.23;14.70;;;;;;;;;;4953762;28;20184;-45
2023/12/20 03:41:40;;;;;;;16.63;15.23;;;;;;;;;;4936538;29;20506;-44
2023/12/20 03:44:06;;;;;;;24.90;22.80;;;;;;;;;;4952495;29;20460;-45
2023/12/20 03:46:32;;;;;;;19.07;17.37;;;;;;;;;;4941268;28;20459;-45
2023/12/20 03:48:58;;;;;;;18.97;17.50;;;;;;;;;;4944708;29;20423;-44
2023/12/20 03:51:24;;;;;;;20.23;18.53;;;;;;;;;;4950130;28;20436;-45
2023/12/20 03:53:50;;;;;;;34.60;32.00;;;;;;;;;;4937808;29;20407;-45
2023/12/20 03:56:16;;;;;;;40.03;36.00;;;;;;;;;;4955767;28;20419;-45
2023/12/20 03:58:41;;;;;;;17.60;16.10;;;;;;;;;;4938743;28;20436;-45
2023/12/20 04:01:13;;;;;;;37.33;32.20;;;;;;;;;;4948817;28;20445;-45
2023/12/20 04:03:40;;;;;;;180.55;53.85;;;;;;;;;;4945566;28;20636;-46
2023/12/20 04:06:06;;;;;;;66.25;37.13;;;;;;;;;;4942077;29;20651;-45
2023/12/20 04:08:32;;;;;;;46.83;41.75;;;;;;;;;;4953584;28;20214;-45
2023/12/20 04:11:00;;;;;;;46.55;41.55;;;;;;;;;;4936137;29;20650;-45
2023/12/20 04:13:26;;;;;;;43.50;36.67;;;;;;;;;;4953561;29;20261;-45
2023/12/20 04:15:52;;;;;;;52.47;40.00;;;;;;;;;;4940795;28;20416;-45
2023/12/20 04:18:18;;;;;;;135.55;42.70;;;;;;;;;;4945350;29;20503;-45
2023/12/20 04:20:44;;;;;;;177.27;52.40;;;;;;;;;;4949390;28;20200;-45
2023/12/20 04:23:10;;;;;;;131.13;41.78;;;;;;;;;;4937194;29;20232;-44
2023/12/20 04:25:36;;;;;;;130.93;40.77;;;;;;;;;;4955286;28;20211;-45
2023/12/20 04:28:02;;;;;;;132.37;40.77;;;;;;;;;;4938207;28;20416;-45
2023/12/20 04:30:28;;;;;;;118.30;43.40;;;;;;;;;;4947496;28;20888;-45
2023/12/20 04:32:54;;;;;;;160.20;49.63;;;;;;;;;;4945910;28;20211;-45
2023/12/20 04:35:20;;;;;;;147.57;47.70;;;;;;;;;;4940585;29;20423;-45
2023/12/20 04:37:47;;;;;;;127.50;41.33;;;;;;;;;;4953738;28;20485;-45
2023/12/20 04:40:13;;;;;;;146.75;47.72;;;;;;;;;;4935721;29;20404;-45
2023/12/20 04:42:39;;;;;;;159.02;50.08;;;;;;;;;;4951769;29;20225;-45
2023/12/20 04:45:05;;;;;;;120.43;40.80;;;;;;;;;;4942947;28;20636;-46
2023/12/20 04:47:31;;;;;;;93.68;35.53;;;;;;;;;;4943916;29;20413;-46
2023/12/20 04:49:57;;;;;;;15.23;13.70;;;;;;;;;;4949885;28;20183;-46
2023/12/20 04:52:23;;;;;;;108.13;37.95;;;;;;;;;;4935456;29;20420;-46
2023/12/20 04:54:49;;;;;;;116.47;38.72;;;;;;;;;;4954552;28;20278;-46
2023/12/20 04:57:15;;;;;;;106.40;36.92;;;;;;;;;;4945350;28;20184;-46
2023/12/20 04:59:41;;;;;;;102.37;34.50;;;;;;;;;;4942482;28;20606;-46
2023/12/20 05:02:07;;;;;;;94.93;35.78;;;;;;;;;;4943077;29;20787;-46
2023/12/20 05:04:33;;;;;;;107.07;37.90;;;;;;;;;;4950010;28;20206;-46
2023/12/20 05:06:59;;;;;;;104.80;36.90;;;;;;;;;;4935149;29;20907;-46
2023/12/20 05:09:25;;;;;;;61.57;32.40;;;;;;;;;;4953077;28;20410;-45
2023/12/20 05:11:51;;;;;;;69.37;34.80;;;;;;;;;;4953470;28;20481;-45
2023/12/20 05:14:17;;;;;;;46.07;28.80;;;;;;;;;;4942780;28;20443;-46
2023/12/20 05:16:43;;;;;;;71.10;33.80;;;;;;;;;;4941958;29;20419;-46
2023/12/20 05:19:09;;;;;;;62.63;32.90;;;;;;;;;;4950432;28;20415;-46
2023/12/20 05:21:35;;;;;;;41.45;38.00;;;;;;;;;;4934652;29;20190;-46
2023/12/20 05:24:01;;;;;;;36.88;33.92;;;;;;;;;;4935092;28;20198;-46
2023/12/20 05:26:29;;;;;;;39.87;36.37;;;;;;;;;;4949681;28;20179;-46
2023/12/20 05:28:55;;;;;;;35.47;33.22;;;;;;;;;;4942725;28;20451;-46
2023/12/20 05:31:21;;;;;;;37.63;35.20;;;;;;;;;;4941605;29;20198;-45
2023/12/20 05:33:47;;;;;;;38.60;35.83;;;;;;;;;;4950479;28;20502;-46
2023/12/20 05:36:14;;;;;;;37.60;34.75;;;;;;;;;;4935043;29;20784;-46
2023/12/20 05:38:40;;;;;;;38.75;35.92;;;;;;;;;;4935097;29;20272;-46
2023/12/20 05:41:06;;;;;;;39.27;36.20;;;;;;;;;;4948973;28;20667;-46
2023/12/20 05:43:32;;;;;;;39.58;36.47;;;;;;;;;;4942795;28;20515;-45
2023/12/20 05:45:58;;;;;;;38.33;35.17;;;;;;;;;;4941362;29;20541;-46
2023/12/20 05:48:24;;;;;;;37.27;34.13;;;;;;;;;;4950892;28;20771;-46
2023/12/20 05:50:50;;;;;;;39.27;36.20;;;;;;;;;;4934333;29;20860;-46
2023/12/20 05:53:16;;;;;;;39.83;36.90;;;;;;;;;;4952575;29;20561;-46
2023/12/20 05:55:42;;;;;;;41.17;37.80;;;;;;;;;;4939423;28;20421;-45
2023/12/20 05:58:08;;;;;;;42.37;39.17;;;;;;;;;;4938156;29;20413;-46
2023/12/20 06:00:34;;;;;;;44.20;40.83;;;;;;;;;;4940112;29;20469;-46
2023/12/20 06:03:00;;;;;;;39.33;36.33;;;;;;;;;;4950978;28;20503;-46
2023/12/20 06:05:26;;;;;;;40.50;37.55;;;;;;;;;;4934456;29;20411;-46
2023/12/20 06:07:52;;;;;;;40.78;37.70;;;;;;;;;;4951983;29;20174;-45
2023/12/20 06:10:18;;;;;;;40.50;37.17;;;;;;;;;;4939675;28;20189;-45
2023/12/20 06:12:44;;;;;;;29.03;27.27;;;;;;;;;;4943784;29;20440;-46
2023/12/20 06:15:10;;;;;;;36.20;33.65;;;;;;;;;;4947458;28;20420;-46
2023/12/20 06:17:36;;;;;;;40.80;37.63;;;;;;;;;;4936014;29;20659;-46
2023/12/20 06:20:07;;;;;;;36.40;33.50;;;;;;;;;;4953403;28;20173;-46
2023/12/20 06:22:33;;;;;;;44.33;40.83;;;;;;;;;;4935366;28;20446;-46
2023/12/20 06:24:59;;;;;;;43.60;40.00;;;;;;;;;;4947861;29;20175;-46
2023/12/20 06:27:25;;;;;;;43.40;39.83;;;;;;;;;;4943752;28;20412;-46
2023/12/20 06:29:51;;;;;;;47.87;36.60;;;;;;;;;;4939754;29;20415;-46
2023/12/20 06:32:17;;;;;;;37.80;32.07;;;;;;;;;;4951051;28;20421;-46
2023/12/20 06:34:43;;;;;;;51.10;32.50;;;;;;;;;;4934387;29;20479;-45
2023/12/20 06:37:09;;;;;;;52.95;33.53;;;;;;;;;;4951230;28;20934;-45
2023/12/20 06:39:35;;;;;;;58.00;33.72;;;;;;;;;;4942900;28;20258;-46
2023/12/20 06:42:01;;;;;;;54.03;32.85;;;;;;;;;;4946654;29;20279;-45
2023/12/20 06:44:27;;;;;;;64.20;33.07;;;;;;;;;;4951361;28;20292;-46
2023/12/20 06:46:53;;;;;;;43.80;29.47;;;;;;;;;;4938909;29;20408;-46
2023/12/20 06:49:19;;;;;;;54.28;32.83;;;;;;;;;;4957029;28;20405;-45
2023/12/20 06:51:45;;;;;;;62.07;33.70;;;;;;;;;;4939910;28;20570;-45
2023/12/20 06:54:11;;;;;;;48.20;32.67;;;;;;;;;;4950110;29;20508;-46
2023/12/20 06:56:36;;;;;;;47.87;31.27;;;;;;;;;;4949680;28;20423;-45
2023/12/20 06:59:02;;;;;;;44.13;31.97;;;;;;;;;;4951874;28;20424;-46
2023/12/20 07:01:28;;;;;;;35.30;30.40;;;;;;;;;;4937632;29;20432;-46
2023/12/20 07:03:54;;;;;;;17.10;15.50;;;;;;;;;;4956472;28;20557;-46
2023/12/20 07:06:20;;;;;;;44.13;32.90;;;;;;;;;;4940462;28;20412;-44
2023/12/20 07:08:46;;;;;;;47.08;31.85;;;;;;;;;;4949336;29;20407;-44
2023/12/20 07:11:12;;;;;;;41.70;31.38;;;;;;;;;;4947894;28;20198;-44
2023/12/20 07:13:38;;;;;;;42.73;31.33;;;;;;;;;;4941127;29;20189;-44
2023/12/20 07:16:04;;;;;;;51.47;33.07;;;;;;;;;;4956020;28;20534;-44
2023/12/20 07:18:30;;;;;;;40.22;31.83;;;;;;;;;;4937311;29;20612;-44
2023/12/20 07:20:56;;;;;;;39.20;31.77;;;;;;;;;;4952162;28;20287;-44
2023/12/20 07:23:22;;;;;;;41.47;32.00;;;;;;;;;;4944487;28;20472;-43
2023/12/20 07:25:48;;;;;;;27.88;25.00;;;;;;;;;;4944941;29;20898;-43
2023/12/20 07:28:14;;;;;;;27.88;25.38;;;;;;;;;;4952377;28;20183;-44
2023/12/20 07:30:40;;;;;;;49.63;44.73;;;;;;;;;;4936856;29;20172;-44
2023/12/20 07:33:08;;;;;;;40.97;36.87;;;;;;;;;;4955932;28;20459;-43
2023/12/20 07:35:34;;;;;;;43.92;39.83;;;;;;;;;;4939881;28;20435;-43
2023/12/20 07:38:01;;;;;;;43.80;39.60;;;;;;;;;;4947364;29;20185;-43
2023/12/20 07:40:26;;;;;;;46.25;41.95;;;;;;;;;;4948000;28;20971;-44
2023/12/20 07:42:52;;;;;;;48.53;43.43;;;;;;;;;;4939793;29;20294;-44
2023/12/20 07:45:18;;;;;;;47.77;42.77;;;;;;;;;;4955773;28;20410;-43
2023/12/20 07:47:44;;;;;;;46.40;41.50;;;;;;;;;;4936908;28;20416;-44
2023/12/20 07:50:10;;;;;;;49.60;40.37;;;;;;;;;;4950928;28;20903;-44
2023/12/20 07:52:36;;;;;;;49.33;44.03;;;;;;;;;;4944640;28;20922;-44
2023/12/20 07:55:02;;;;;;;44.73;39.83;;;;;;;;;;4943117;29;20515;-44
2023/12/20 07:57:31;;;;;;;46.58;41.65;;;;;;;;;;4952473;28;20461;-43
2023/12/20 07:59:57;;;;;;;45.10;37.67;;;;;;;;;;4936404;29;20172;-44
2023/12/20 08:02:23;;;;;;;46.67;41.67;;;;;;;;;;4936453;29;20194;-43
2023/12/20 08:04:49;;;;;;;31.90;29.20;;;;;;;;;;4949369;29;21131;-44
2023/12/20 08:07:15;;;;;;;26.80;24.30;;;;;;;;;;4944577;28;20828;-44
2023/12/20 08:09:43;;;;;;;29.48;26.75;;;;;;;;;;4942669;29;20912;-44
2023/12/20 08:12:09;;;;;;;20.40;18.70;;;;;;;;;;4951975;28;20201;-44
2023/12/20 08:14:35;;;;;;;25.27;22.40;;;;;;;;;;4936080;29;20255;-43
2023/12/20 08:17:01;;;;;;;29.33;26.23;;;;;;;;;;4954170;29;20650;-44
2023/12/20 08:19:27;;;;;;;22.27;19.87;;;;;;;;;;4940864;28;20944;-44
2023/12/20 08:21:53;;;;;;;49.27;43.87;;;;;;;;;;4945912;29;20983;-43
2023/12/20 08:24:19;;;;;;;46.00;40.83;;;;;;;;;;4948575;28;21039;-44
2023/12/20 08:26:46;;;;;;;29.40;26.30;;;;;;;;;;4940175;28;20892;-44
2023/12/20 08:29:13;;;;;;;44.15;39.42;;;;;;;;;;4946420;29;20414;-43
2023/12/20 08:31:39;;;;;;;43.00;35.58;;;;;;;;;;4936402;28;20207;-43
2023/12/20 08:34:05;;;;;;;13.97;12.63;;;;;;;;;;4949521;29;20545;-43
2023/12/20 08:36:31;;;;;;;15.77;14.43;;;;;;;;;;4944651;28;20555;-44
2023/12/20 08:38:57;;;;;;;12.27;11.30;;;;;;;;;;4941498;29;20246;-44
2023/12/20 08:41:23;;;;;;;17.50;15.97;;;;;;;;;;4952017;28;20422;-43
2023/12/20 08:43:49;;;;;;;31.67;28.27;;;;;;;;;;4935289;29;20460;-44
2023/12/20 08:46:15;;;;;;;16.65;15.15;;;;;;;;;;4953000;29;20503;-44
2023/12/20 08:48:41;;;;;;;17.08;15.68;;;;;;;;;;4940924;28;20182;-44
2023/12/20 08:51:08;;;;;;;34.00;30.77;;;;;;;;;;4944522;28;20207;-43
2023/12/20 08:53:34;;;;;;;34.53;31.23;;;;;;;;;;4948424;28;20413;-44
2023/12/20 08:56:01;;;;;;;21.55;20.05;;;;;;;;;;4936961;29;20189;-43
2023/12/20 08:58:27;;;;;;;12.23;11.13;;;;;;;;;;4954268;28;20242;-43
2023/12/20 09:00:53;;;;;;;46.63;35.65;;;;;;;;;;4936266;28;20201;-43
2023/12/20 09:03:19;;;;;;;30.10;27.20;;;;;;;;;;4948025;29;20221;-43
2023/12/20 09:05:45;;;;;;;31.73;28.57;;;;;;;;;;4944934;28;20420;-44
2023/12/20 09:08:11;;;;;;;14.50;13.37;;;;;;;;;;4940204;29;20419;-44
2023/12/20 09:10:38;;;;;;;18.08;16.48;;;;;;;;;;4952559;28;20432;-44
2023/12/20 09:13:04;;;;;;;16.02;14.68;;;;;;;;;;4933416;29;20198;-44
2023/12/20 09:15:30;;;;;;;17.35;16.05;;;;;;;;;;4951009;29;20204;-44
2023/12/20 09:17:56;;;;;;;15.03;13.67;;;;;;;;;;4941160;28;20657;-43
2023/12/20 09:20:23;;;;;;;42.97;38.13;;;;;;;;;;4942813;29;20452;-44
2023/12/20 09:22:49;;;;;;;34.88;31.52;;;;;;;;;;4948284;28;20193;-44
2023/12/20 09:25:17;;;;;;;18.63;17.15;;;;;;;;;;4935692;29;20545;-44
2023/12/20 09:27:43;;;;;;;26.83;24.73;;;;;;;;;;4954184;28;20166;-43
2023/12/20 09:30:09;;;;;;;14.90;13.68;;;;;;;;;;4937319;28;20188;-43
2023/12/20 09:32:35;;;;;;;16.27;15.18;;;;;;;;;;4947297;29;20565;-43
2023/12/20 09:35:02;;;;;;;15.90;14.73;;;;;;;;;;4945163;28;20233;-43
2023/12/20 09:37:28;;;;;;;17.30;15.90;;;;;;;;;;4939425;28;20412;-43
2023/12/20 09:39:54;;;;;;;34.97;32.05;;;;;;;;;;4953008;28;20177;-43
2023/12/20 09:42:32;;;;;;;19.52;18.10;;;;;;;;;;4934403;29;20186;-43
2023/12/20 09:45:01;;;;;;;36.40;33.00;;;;;;;;;;4934792;29;20185;-43
2023/12/20 09:47:27;;;;;;;18.73;17.50;;;;;;;;;;4948773;29;20683;-43
2023/12/20 09:49:53;;;;;;;15.65;14.35;;;;;;;;;;4943391;28;20177;-43
2023/12/20 09:52:20;;;;;;;26.35;23.58;;;;;;;;;;4940526;28;20200;-43
2023/12/20 09:54:48;;;;;;;24.20;22.50;;;;;;;;;;4951191;28;20207;-44
2023/12/20 09:57:14;;;;;;;16.52;15.43;;;;;;;;;;4941220;29;20176;-43
2023/12/20 09:59:40;;;;;;;19.37;17.97;;;;;;;;;;4935601;28;20707;-43
2023/12/20 10:02:09;;;;;;;36.22;32.55;;;;;;;;;;4948226;28;20451;-44
2023/12/20 10:04:35;;;;;;;27.75;25.52;;;;;;;;;;4942855;28;20231;-45
2023/12/20 10:07:04;;;;;;;24.37;22.77;;;;;;;;;;4941052;29;20181;-43
2023/12/20 10:09:32;;;;;;;16.95;15.73;;;;;;;;;;4950428;28;20427;-44
2023/12/20 10:11:58;;;;;;;44.67;38.88;;;;;;;;;;4934650;29;20197;-44
2023/12/20 10:14:24;;;;;;;39.67;37.13;;;;;;;;;;4956849;29;20183;-44
2023/12/20 10:16:50;;;;;;;34.20;32.40;;;;;;;;;;4942594;28;20677;-44
2023/12/20 10:19:20;;;;;;;42.50;39.73;;;;;;;;;;4948830;29;20197;-43
2023/12/20 10:21:46;;;;;;;44.42;41.67;;;;;;;;;;4949805;28;20495;-44
2023/12/20 10:24:17;;;;;;;36.78;34.65;;;;;;;;;;4941261;29;20322;-43
2023/12/20 10:26:43;;;;;;;36.58;34.47;;;;;;;;;;4957258;28;20172;-44
2023/12/20 10:29:10;;;;;;;34.47;32.57;;;;;;;;;;4938192;28;20527;-43
2023/12/20 10:31:38;;;;;;;35.45;33.40;;;;;;;;;;4952952;28;20491;-43
2023/12/20 10:34:04;;;;;;;36.17;34.03;;;;;;;;;;4945269;28;20188;-43
2023/12/20 10:36:32;;;;;;;38.80;36.50;;;;;;;;;;4945830;29;20184;-44
2023/12/20 10:38:58;;;;;;;34.72;32.63;;;;;;;;;;4952975;28;20272;-43
2023/12/20 10:41:28;;;;;;;42.03;39.13;;;;;;;;;;4937549;29;20316;-43
2023/12/20 10:43:55;;;;;;;41.00;38.20;;;;;;;;;;4956882;28;20247;-43
2023/12/20 10:46:21;;;;;;;45.88;42.70;;;;;;;;;;4941424;28;20245;-42
2023/12/20 10:48:47;;;;;;;39.80;37.13;;;;;;;;;;4949766;29;20222;-43
2023/12/20 10:51:14;;;;;;;37.10;34.60;;;;;;;;;;4948272;28;20434;-42
2023/12/20 10:53:41;;;;;;;44.75;41.50;;;;;;;;;;4941817;29;20210;-43
2023/12/20 10:56:08;;;;;;;43.05;39.90;;;;;;;;;;4956161;28;20180;-43
2023/12/20 10:58:36;;;;;;;44.00;40.78;;;;;;;;;;4955194;29;20187;-43
2023/12/20 11:01:02;;;;;;;42.95;39.70;;;;;;;;;;4940181;28;20226;-43
2023/12/20 11:03:29;;;;;;;43.33;39.90;;;;;;;;;;4949369;29;20209;-43
2023/12/20 11:06:14;;;;;;;39.97;36.85;;;;;;;;;;4947818;28;20177;-43
2023/12/20 11:08:50;;;;;;;39.78;36.80;;;;;;;;;;4946280;29;20240;-43
2023/12/20 11:11:22;;;;;;;40.45;37.63;;;;;;;;;;4951741;28;20209;-43
2023/12/20 11:13:54;;;;;;;35.20;32.90;;;;;;;;;;4938251;29;20244;-42
2023/12/20 11:16:20;;;;;;;40.38;37.67;;;;;;;;;;4956487;28;20184;-43
2023/12/20 11:18:46;;;;;;;34.25;32.05;;;;;;;;;;4938968;28;20185;-43
2023/12/20 11:21:14;;;;;;;38.60;35.90;;;;;;;;;;4950325;28;20376;-42
2023/12/20 11:23:42;;;;;;;42.10;39.28;;;;;;;;;;4945602;28;20465;-43
2023/12/20 11:26:08;;;;;;;42.42;39.22;;;;;;;;;;4942916;29;20224;-42
2023/12/20 11:28:34;;;;;;;45.00;41.70;;;;;;;;;;4953954;28;20200;-43
2023/12/20 11:31:01;;;;;;;42.77;39.27;;;;;;;;;;4936644;29;20436;-43
2023/12/20 11:33:31;;;;;;;43.50;40.10;;;;;;;;;;4954002;29;20441;-42
2023/12/20 11:35:58;;;;;;;45.10;41.10;;;;;;;;;;4941813;28;20551;-42
2023/12/20 11:38:24;;;;;;;44.28;40.58;;;;;;;;;;4946654;29;20179;-42
2023/12/20 11:40:50;;;;;;;42.50;38.80;;;;;;;;;;4949335;28;20213;-43
2023/12/20 11:43:32;;;;;;;41.58;38.00;;;;;;;;;;4946196;28;20259;-43
2023/12/20 11:46:03;;;;;;;42.38;38.67;;;;;;;;;;4955284;28;20175;-42
2023/12/20 11:48:31;;;;;;;43.45;39.65;;;;;;;;;;4936441;29;20184;-43
2023/12/20 11:50:57;;;;;;;43.40;39.70;;;;;;;;;;4952715;28;20201;-43
2023/12/20 11:53:23;;;;;;;46.75;42.92;;;;;;;;;;4942729;28;20229;-43
2023/12/20 11:55:52;;;;;;;41.63;38.17;;;;;;;;;;4944891;29;20193;-42
2023/12/20 11:58:18;;;;;;;38.95;36.05;;;;;;;;;;4950554;28;20842;-42
2023/12/20 12:00:44;;;;;;;39.27;36.17;;;;;;;;;;4936959;29;20194;-43
2023/12/20 12:03:10;;;;;;;44.80;41.13;;;;;;;;;;4955023;28;20983;-43
2023/12/20 12:05:36;;;;;;;46.63;42.47;;;;;;;;;;4938828;28;20428;-43
2023/12/20 12:08:03;;;;;;;42.67;39.00;;;;;;;;;;4948669;29;20180;-42
2023/12/20 12:10:30;;;;;;;52.20;47.50;;;;;;;;;;4946303;28;20425;-43
2023/12/20 12:12:56;;;;;;;39.33;35.70;;;;;;;;;;4940727;29;20609;-43
2023/12/20 12:15:22;;;;;;;43.58;39.88;;;;;;;;;;4954179;28;20538;-42
2023/12/20 12:17:57;;;;;;;42.78;39.08;;;;;;;;;;4935913;29;20181;-42
2023/12/20 12:20:24;;;;;;;45.40;41.60;;;;;;;;;;4952873;29;20202;-43
2023/12/20 12:23:03;;;;;;;49.42;45.28;;;;;;;;;;4951483;28;20216;-43
2023/12/20 12:25:30;;;;;;;40.70;37.40;;;;;;;;;;4950761;28;20200;-43
2023/12/20 12:27:56;;;;;;;51.20;46.70;;;;;;;;;;4946558;28;20221;-43
2023/12/20 12:30:22;;;;;;;44.50;40.50;;;;;;;;;;4947878;28;20192;-43
2023/12/20 12:32:48;;;;;;;49.55;45.03;;;;;;;;;;4954454;28;20187;-43
2023/12/20 12:35:15;;;;;;;49.88;45.28;;;;;;;;;;4952773;28;20271;-42
2023/12/20 12:37:42;;;;;;;47.30;42.83;;;;;;;;;;4939330;28;20184;-42
2023/12/20 12:40:11;;;;;;;48.72;44.30;;;;;;;;;;4945494;29;20188;-42
2023/12/20 12:42:37;;;;;;;45.97;41.78;;;;;;;;;;4946496;28;20277;-42
2023/12/20 12:45:04;;;;;;;45.97;41.67;;;;;;;;;;4939096;29;20714;-43
2023/12/20 12:47:30;;;;;;;44.67;40.33;;;;;;;;;;4954530;28;20170;-43
2023/12/20 12:49:56;;;;;;;40.63;36.63;;;;;;;;;;4935816;28;20172;-43
2023/12/20 12:52:22;;;;;;;45.35;41.38;;;;;;;;;;4948836;28;20984;-43
2023/12/20 12:54:48;;;;;;;44.03;40.30;;;;;;;;;;4943868;28;20191;-42
2023/12/20 12:57:15;;;;;;;45.47;41.47;;;;;;;;;;4942401;29;20436;-42
2023/12/20 12:59:42;;;;;;;43.35;39.80;;;;;;;;;;4950921;28;20273;-43
2023/12/20 13:02:08;;;;;;;48.72;44.13;;;;;;;;;;4937601;29;20767;-43
2023/12/20 13:04:34;;;;;;;39.03;35.20;;;;;;;;;;4951748;28;20279;-43
2023/12/20 13:07:00;;;;;;;48.03;43.70;;;;;;;;;;4961129;28;20495;-42
2023/12/20 13:09:26;;;;;;;43.25;39.53;;;;;;;;;;4954741;28;20200;-42
2023/12/20 13:11:52;;;;;;;44.30;40.57;;;;;;;;;;4955826;28;20689;-43
2023/12/20 13:14:18;;;;;;;43.47;39.83;;;;;;;;;;4954289;28;20417;-43
2023/12/20 13:16:45;;;;;;;43.57;39.97;;;;;;;;;;4954165;28;20500;-43
2023/12/20 13:19:12;;;;;;;48.53;44.53;;;;;;;;;;4954028;28;20416;-42
2023/12/20 13:21:38;;;;;;;43.70;40.00;;;;;;;;;;4953751;28;20296;-43
2023/12/20 13:24:04;;;;;;;46.75;43.05;;;;;;;;;;4953739;28;20189;-43
2023/12/20 13:26:30;;;;;;;45.28;41.67;;;;;;;;;;4954055;28;20173;-42
2023/12/20 13:28:56;;;;;;;42.45;38.92;;;;;;;;;;4953897;28;20231;-43
2023/12/20 13:31:22;;;;;;;34.23;31.23;;;;;;;;;;4951953;28;20907;-42
2023/12/20 13:33:48;;;;;;;47.77;43.67;;;;;;;;;;4946979;28;20425;-42
2023/12/20 13:36:14;;;;;;;47.57;43.47;;;;;;;;;;4953322;28;20446;-42
2023/12/20 13:38:40;;;;;;;49.63;45.17;;;;;;;;;;4953726;28;20440;-42
2023/12/20 13:41:06;;;;;;;43.50;39.40;;;;;;;;;;4954912;28;20444;-42
2023/12/20 13:43:32;;;;;;;44.40;40.00;;;;;;;;;;4953396;28;20490;-43
2023/12/20 13:45:59;;;;;;;47.25;42.97;;;;;;;;;;4952151;28;20451;-43
2023/12/20 13:48:25;;;;;;;45.88;41.70;;;;;;;;;;4952330;28;20260;-44
2023/12/20 13:50:51;;;;;;;49.40;44.70;;;;;;;;;;4951795;28;20280;-43
2023/12/20 13:53:17;;;;;;;45.33;41.13;;;;;;;;;;4953504;28;20416;-43
2023/12/20 13:55:43;;;;;;;42.85;38.85;;;;;;;;;;4955119;28;20920;-43
2023/12/20 13:58:12;;;;;;;43.80;39.37;;;;;;;;;;4953154;28;20279;-43
2023/12/20 14:00:38;;;;;;;43.05;39.05;;;;;;;;;;4951679;28;20945;-43
2023/12/20 14:03:04;;;;;;;43.72;39.70;;;;;;;;;;4952615;28;20198;-42
2023/12/20 14:05:30;;;;;;;46.75;42.47;;;;;;;;;;4953389;28;20181;-42
2023/12/20 14:08:00;;;;;;;46.80;42.47;;;;;;;;;;4950680;28;20172;-42
2023/12/20 14:10:26;;;;;;;46.90;42.72;;;;;;;;;;4951521;28;20170;-43